sensor_id;sensor_type;location;lat;lon;timestamp;temperature;humidity
24802;DHT22;12898;50.520;12.152;2022-08-11T00:01:19;12.00;99.90
24802;DHT22;12898;50.520;12.152;2022-08-11T00:03:55;12.00;99.90
24802;DHT22;12898;50.520;12.152;2022-08-11T00:06:32;12.10;99.90
24802;DHT22;12898;50.520;12.152;2022-08-11T00:09:04;12.10;99.90
24802;DHT22;12898;50.520;12.152;2022-08-11T00:11:37;12.10;99.90
24802;DHT22;12898;50.520;12.152;2022-08-11T00:14:22;12.10;99.90
24802;DHT22;12898;50.520;12.152;2022-08-11T00:17:21;12.10;99.90
24802;DHT22;12898;50.520;12.152;2022-08-11T00:20:06;12.20;99.90
24802;DHT22;12898;50.520;12.152;2022-08-11T00:22:35;12.20;99.90
24802;DHT22;12898;50.520;12.152;2022-08-11T00:25:11;12.10;99.90
24802;DHT22;12898;50.520;12.152;2022-08-11T00:27:39;12.10;99.90
24802;DHT22;12898;50.520;12.152;2022-08-11T00:30:07;12.00;99.90
24802;DHT22;12898;50.520;12.152;2022-08-11T00:32:35;12.00;99.90
24802;DHT22;12898;50.520;12.152;2022-08-11T00:35:04;11.90;99.90
24802;DHT22;12898;50.520;12.152;2022-08-11T00:37:32;11.90;99.90
24802;DHT22;12898;50.520;12.152;2022-08-11T00:40:02;11.90;99.90
24802;DHT22;12898;50.520;12.152;2022-08-11T00:42:57;11.90;99.90
24802;DHT22;12898;50.520;12.152;2022-08-11T00:45:52;11.90;99.90
24802;DHT22;12898;50.520;12.152;2022-08-11T00:48:44;11.90;99.90
24802;DHT22;12898;50.520;12.152;2022-08-11T00:57:38;11.80;99.90
24802;DHT22;12898;50.520;12.152;2022-08-11T01:01:08;11.80;99.90
24802;DHT22;12898;50.520;12.152;2022-08-11T01:06:50;11.80;99.90
24802;DHT22;12898;50.520;12.152;2022-08-11T01:15:27;11.90;99.90
24802;DHT22;12898;50.520;12.152;2022-08-11T01:18:28;11.90;99.90
24802;DHT22;12898;50.520;12.152;2022-08-11T01:24:50;12.00;99.90
24802;DHT22;12898;50.520;12.152;2022-08-11T01:46:38;11.60;99.90
24802;DHT22;12898;50.520;12.152;2022-08-11T01:52:26;11.50;99.90
24802;DHT22;12898;50.520;12.152;2022-08-11T01:58:14;11.30;99.90
24802;DHT22;12898;50.520;12.152;2022-08-11T02:01:15;11.20;99.90
24802;DHT22;12898;50.520;12.152;2022-08-11T02:05:02;11.10;99.90
24802;DHT22;12898;50.520;12.152;2022-08-11T02:07:14;11.00;99.90
24802;DHT22;12898;50.520;12.152;2022-08-11T02:12:58;10.90;99.90
24802;DHT22;12898;50.520;12.152;2022-08-11T02:15:44;10.80;99.90
24802;DHT22;12898;50.520;12.152;2022-08-11T02:18:27;10.70;99.90
24802;DHT22;12898;50.520;12.152;2022-08-11T02:21:27;10.60;99.90
24802;DHT22;12898;50.520;12.152;2022-08-11T02:24:22;10.60;99.90
24802;DHT22;12898;50.520;12.152;2022-08-11T02:27:03;10.50;99.90
24802;DHT22;12898;50.520;12.152;2022-08-11T02:32:26;10.40;99.90
24802;DHT22;12898;50.520;12.152;2022-08-11T02:35:26;10.40;99.90
24802;DHT22;12898;50.520;12.152;2022-08-11T02:38:31;10.30;99.90
24802;DHT22;12898;50.520;12.152;2022-08-11T02:41:14;10.20;99.90
24802;DHT22;12898;50.520;12.152;2022-08-11T02:47:07;10.20;99.90
24802;DHT22;12898;50.520;12.152;2022-08-11T02:49:49;10.10;99.90
24802;DHT22;12898;50.520;12.152;2022-08-11T02:52:47;10.10;99.90
24802;DHT22;12898;50.520;12.152;2022-08-11T02:55:29;10.10;99.90
24802;DHT22;12898;50.520;12.152;2022-08-11T02:58:13;10.00;99.90
24802;DHT22;12898;50.520;12.152;2022-08-11T03:00:49;10.00;99.90
24802;DHT22;12898;50.520;12.152;2022-08-11T03:03:35;9.90;99.90
24802;DHT22;12898;50.520;12.152;2022-08-11T03:06:19;9.90;99.90
24802;DHT22;12898;50.520;12.152;2022-08-11T03:15:30;9.70;99.90
24802;DHT22;12898;50.520;12.152;2022-08-11T03:19:09;9.70;99.90
24802;DHT22;12898;50.520;12.152;2022-08-11T03:28:24;9.60;99.90
24802;DHT22;12898;50.520;12.152;2022-08-11T03:30:56;9.50;99.90
24802;DHT22;12898;50.520;12.152;2022-08-11T03:33:36;9.50;99.90
24802;DHT22;12898;50.520;12.152;2022-08-11T03:36:39;9.40;99.90
24802;DHT22;12898;50.520;12.152;2022-08-11T03:40:15;9.40;99.90
24802;DHT22;12898;50.520;12.152;2022-08-11T03:43:23;9.40;99.90
24802;DHT22;12898;50.520;12.152;2022-08-11T03:46:11;9.40;99.90
24802;DHT22;12898;50.520;12.152;2022-08-11T03:51:55;9.40;99.90
24802;DHT22;12898;50.520;12.152;2022-08-11T04:06:53;9.30;99.90
24802;DHT22;12898;50.520;12.152;2022-08-11T04:13:18;9.40;99.90
24802;DHT22;12898;50.520;12.152;2022-08-11T04:22:16;9.30;99.90
24802;DHT22;12898;50.520;12.152;2022-08-11T04:31:19;9.40;99.90
24802;DHT22;12898;50.520;12.152;2022-08-11T04:34:15;9.50;99.90
24802;DHT22;12898;50.520;12.152;2022-08-11T04:43:30;9.60;99.90
24802;DHT22;12898;50.520;12.152;2022-08-11T04:53:28;9.90;99.90
24802;DHT22;12898;50.520;12.152;2022-08-11T04:56:28;9.90;99.90
24802;DHT22;12898;50.520;12.152;2022-08-11T05:02:41;10.10;99.90
24802;DHT22;12898;50.520;12.152;2022-08-11T05:05:34;10.20;99.90
24802;DHT22;12898;50.520;12.152;2022-08-11T05:11:52;10.30;99.90
24802;DHT22;12898;50.520;12.152;2022-08-11T05:17:43;10.60;99.90
24802;DHT22;12898;50.520;12.152;2022-08-11T05:20:51;10.70;99.90
24802;DHT22;12898;50.520;12.152;2022-08-11T05:23:45;10.80;99.90
24802;DHT22;12898;50.520;12.152;2022-08-11T05:26:38;10.90;99.90
24802;DHT22;12898;50.520;12.152;2022-08-11T05:29:44;11.00;99.90
24802;DHT22;12898;50.520;12.152;2022-08-11T05:32:35;11.20;99.90
24802;DHT22;12898;50.520;12.152;2022-08-11T05:35:35;11.30;99.90
24802;DHT22;12898;50.520;12.152;2022-08-11T05:38:09;11.50;99.90
24802;DHT22;12898;50.520;12.152;2022-08-11T05:40:57;11.60;99.90
24802;DHT22;12898;50.520;12.152;2022-08-11T05:43:43;11.70;99.90
24802;DHT22;12898;50.520;12.152;2022-08-11T05:46:28;11.90;99.90
24802;DHT22;12898;50.520;12.152;2022-08-11T05:49:13;12.00;99.90
24802;DHT22;12898;50.520;12.152;2022-08-11T05:51:59;12.10;99.90
24802;DHT22;12898;50.520;12.152;2022-08-11T05:54:44;12.30;99.90
24802;DHT22;12898;50.520;12.152;2022-08-11T05:57:32;12.40;99.90
24802;DHT22;12898;50.520;12.152;2022-08-11T06:00:06;12.60;99.90
24802;DHT22;12898;50.520;12.152;2022-08-11T06:02:40;12.80;99.90
24802;DHT22;12898;50.520;12.152;2022-08-11T06:05:07;12.90;99.90
24802;DHT22;12898;50.520;12.152;2022-08-11T06:07:34;13.00;99.90
24802;DHT22;12898;50.520;12.152;2022-08-11T06:10:00;13.20;99.90
24802;DHT22;12898;50.520;12.152;2022-08-11T06:12:31;13.30;99.90
24802;DHT22;12898;50.520;12.152;2022-08-11T06:15:05;13.50;99.90
24802;DHT22;12898;50.520;12.152;2022-08-11T06:17:34;13.70;99.90
24802;DHT22;12898;50.520;12.152;2022-08-11T06:20:04;13.80;99.90
24802;DHT22;12898;50.520;12.152;2022-08-11T06:22:32;14.00;99.90
24802;DHT22;12898;50.520;12.152;2022-08-11T06:25:00;14.20;99.90
24802;DHT22;12898;50.520;12.152;2022-08-11T06:27:29;14.40;99.90
24802;DHT22;12898;50.520;12.152;2022-08-11T06:29:56;14.60;99.90
24802;DHT22;12898;50.520;12.152;2022-08-11T06:32:31;14.80;99.90
24802;DHT22;12898;50.520;12.152;2022-08-11T06:41:03;15.30;99.90
24802;DHT22;12898;50.520;12.152;2022-08-11T06:46:41;15.90;99.90
24802;DHT22;12898;50.520;12.152;2022-08-11T06:49:11;16.10;99.90
24802;DHT22;12898;50.520;12.152;2022-08-11T06:52:14;16.30;99.90
24802;DHT22;12898;50.520;12.152;2022-08-11T06:54:50;16.50;99.90
24802;DHT22;12898;50.520;12.152;2022-08-11T06:57:21;16.80;99.90
24802;DHT22;12898;50.520;12.152;2022-08-11T07:00:07;16.90;99.90
24802;DHT22;12898;50.520;12.152;2022-08-11T07:03:12;17.20;99.90
24802;DHT22;12898;50.520;12.152;2022-08-11T07:05:54;17.40;99.90
24802;DHT22;12898;50.520;12.152;2022-08-11T07:09:02;17.70;99.90
24802;DHT22;12898;50.520;12.152;2022-08-11T07:12:24;18.00;99.90
24802;DHT22;12898;50.520;12.152;2022-08-11T07:15:15;18.40;99.90
24802;DHT22;12898;50.520;12.152;2022-08-11T07:18:03;18.70;99.90
24802;DHT22;12898;50.520;12.152;2022-08-11T07:20:51;19.00;98.60
24802;DHT22;12898;50.520;12.152;2022-08-11T07:23:39;19.30;97.00
24802;DHT22;12898;50.520;12.152;2022-08-11T07:26:25;19.60;95.40
24802;DHT22;12898;50.520;12.152;2022-08-11T07:29:13;19.90;94.90
24802;DHT22;12898;50.520;12.152;2022-08-11T07:31:50;20.30;93.30
24802;DHT22;12898;50.520;12.152;2022-08-11T07:36:56;20.80;91.20
24802;DHT22;12898;50.520;12.152;2022-08-11T07:39:26;21.10;87.50
24802;DHT22;12898;50.520;12.152;2022-08-11T07:41:57;21.50;86.20
24802;DHT22;12898;50.520;12.152;2022-08-11T07:44:25;21.70;82.20
24802;DHT22;12898;50.520;12.152;2022-08-11T07:46:55;22.10;80.40
24802;DHT22;12898;50.520;12.152;2022-08-11T07:49:44;22.40;78.00
24802;DHT22;12898;50.520;12.152;2022-08-11T07:52:30;22.80;74.30
24802;DHT22;12898;50.520;12.152;2022-08-11T07:55:12;23.10;69.50
24802;DHT22;12898;50.520;12.152;2022-08-11T07:57:39;23.50;63.70
24802;DHT22;12898;50.520;12.152;2022-08-11T08:00:25;23.70;59.50
24802;DHT22;12898;50.520;12.152;2022-08-11T08:03:09;24.10;58.30
24802;DHT22;12898;50.520;12.152;2022-08-11T08:05:54;24.50;57.50
24802;DHT22;12898;50.520;12.152;2022-08-11T08:08:40;24.90;56.40
24802;DHT22;12898;50.520;12.152;2022-08-11T08:11:25;25.20;54.90
24802;DHT22;12898;50.520;12.152;2022-08-11T08:14:10;25.60;54.80
24802;DHT22;12898;50.520;12.152;2022-08-11T08:16:56;25.90;52.50
24802;DHT22;12898;50.520;12.152;2022-08-11T08:19:42;26.10;54.00
24802;DHT22;12898;50.520;12.152;2022-08-11T08:22:16;26.50;52.40
24802;DHT22;12898;50.520;12.152;2022-08-11T08:24:46;26.80;50.50
24802;DHT22;12898;50.520;12.152;2022-08-11T08:27:15;27.10;49.30
24802;DHT22;12898;50.520;12.152;2022-08-11T08:29:43;27.30;49.00
24802;DHT22;12898;50.520;12.152;2022-08-11T08:32:28;27.70;49.70
24802;DHT22;12898;50.520;12.152;2022-08-11T08:34:55;28.00;46.20
24802;DHT22;12898;50.520;12.152;2022-08-11T08:37:24;28.20;45.40
24802;DHT22;12898;50.520;12.152;2022-08-11T08:39:53;28.40;44.90
24802;DHT22;12898;50.520;12.152;2022-08-11T08:42:25;28.70;44.60
24802;DHT22;12898;50.520;12.152;2022-08-11T08:45:07;28.80;40.50
24802;DHT22;12898;50.520;12.152;2022-08-11T08:47:46;28.90;41.80
24802;DHT22;12898;50.520;12.152;2022-08-11T08:50:20;29.10;40.80
24802;DHT22;12898;50.520;12.152;2022-08-11T08:52:55;29.20;40.50
24802;DHT22;12898;50.520;12.152;2022-08-11T08:55:26;29.40;38.80
24802;DHT22;12898;50.520;12.152;2022-08-11T08:57:55;29.40;39.40
24802;DHT22;12898;50.520;12.152;2022-08-11T09:00:39;29.60;39.70
24802;DHT22;12898;50.520;12.152;2022-08-11T09:03:09;29.80;39.10
24802;DHT22;12898;50.520;12.152;2022-08-11T09:05:36;29.90;38.20
24802;DHT22;12898;50.520;12.152;2022-08-11T09:08:02;30.00;38.00
24802;DHT22;12898;50.520;12.152;2022-08-11T09:10:29;30.10;38.30
24802;DHT22;12898;50.520;12.152;2022-08-11T09:12:56;30.20;37.70
24802;DHT22;12898;50.520;12.152;2022-08-11T09:15:24;30.30;37.70
24802;DHT22;12898;50.520;12.152;2022-08-11T09:17:55;30.00;37.50
24802;DHT22;12898;50.520;12.152;2022-08-11T09:20:33;30.00;37.10
24802;DHT22;12898;50.520;12.152;2022-08-11T09:23:04;30.10;37.50
24802;DHT22;12898;50.520;12.152;2022-08-11T09:25:52;30.30;37.50
24802;DHT22;12898;50.520;12.152;2022-08-11T09:28:45;30.60;36.40
24802;DHT22;12898;50.520;12.152;2022-08-11T09:31:13;30.80;35.40
24802;DHT22;12898;50.520;12.152;2022-08-11T09:33:40;31.00;35.40
24802;DHT22;12898;50.520;12.152;2022-08-11T09:36:07;31.20;34.70
24802;DHT22;12898;50.520;12.152;2022-08-11T09:38:52;31.30;34.30
24802;DHT22;12898;50.520;12.152;2022-08-11T09:41:38;31.50;32.80
24802;DHT22;12898;50.520;12.152;2022-08-11T09:44:05;31.40;32.90
24802;DHT22;12898;50.520;12.152;2022-08-11T09:46:54;31.60;34.10
24802;DHT22;12898;50.520;12.152;2022-08-11T09:49:20;31.80;32.90
24802;DHT22;12898;50.520;12.152;2022-08-11T09:51:47;31.80;32.80
24802;DHT22;12898;50.520;12.152;2022-08-11T09:54:15;32.00;33.10
24802;DHT22;12898;50.520;12.152;2022-08-11T09:56:42;32.20;33.30
24802;DHT22;12898;50.520;12.152;2022-08-11T09:59:28;32.10;32.60
24802;DHT22;12898;50.520;12.152;2022-08-11T10:01:58;31.90;32.90
24802;DHT22;12898;50.520;12.152;2022-08-11T10:04:32;32.00;33.30
24802;DHT22;12898;50.520;12.152;2022-08-11T10:07:13;32.20;33.50
24802;DHT22;12898;50.520;12.152;2022-08-11T10:09:58;32.40;31.80
24802;DHT22;12898;50.520;12.152;2022-08-11T10:12:30;32.60;31.60
24802;DHT22;12898;50.520;12.152;2022-08-11T10:15:01;32.60;31.80
24802;DHT22;12898;50.520;12.152;2022-08-11T10:17:52;32.60;31.90
24802;DHT22;12898;50.520;12.152;2022-08-11T10:20:42;32.60;31.20
24802;DHT22;12898;50.520;12.152;2022-08-11T10:23:11;32.60;31.70
24802;DHT22;12898;50.520;12.152;2022-08-11T10:25:56;32.80;31.30
24802;DHT22;12898;50.520;12.152;2022-08-11T10:28:41;32.70;31.70
24802;DHT22;12898;50.520;12.152;2022-08-11T10:31:08;32.60;31.90
24802;DHT22;12898;50.520;12.152;2022-08-11T10:33:53;32.80;32.10
24802;DHT22;12898;50.520;12.152;2022-08-11T10:36:40;33.10;31.60
24802;DHT22;12898;50.520;12.152;2022-08-11T10:39:16;33.40;31.00
24802;DHT22;12898;50.520;12.152;2022-08-11T10:41:45;33.60;30.20
24802;DHT22;12898;50.520;12.152;2022-08-11T10:44:35;33.60;30.20
24802;DHT22;12898;50.520;12.152;2022-08-11T10:47:03;33.30;30.10
24802;DHT22;12898;50.520;12.152;2022-08-11T10:49:49;33.30;30.40
24802;DHT22;12898;50.520;12.152;2022-08-11T10:52:36;33.50;30.60
24802;DHT22;12898;50.520;12.152;2022-08-11T10:55:23;33.70;30.40
24802;DHT22;12898;50.520;12.152;2022-08-11T10:58:09;33.70;30.10
24802;DHT22;12898;50.520;12.152;2022-08-11T11:00:55;33.70;30.00
24802;DHT22;12898;50.520;12.152;2022-08-11T11:03:25;33.70;31.40
24802;DHT22;12898;50.520;12.152;2022-08-11T11:05:56;33.80;30.00
24802;DHT22;12898;50.520;12.152;2022-08-11T11:08:29;33.70;29.90
24802;DHT22;12898;50.520;12.152;2022-08-11T11:11:17;33.70;29.80
24802;DHT22;12898;50.520;12.152;2022-08-11T11:13:46;33.50;30.10
24802;DHT22;12898;50.520;12.152;2022-08-11T11:16:35;33.40;31.20
24802;DHT22;12898;50.520;12.152;2022-08-11T11:19:22;33.70;30.80
24802;DHT22;12898;50.520;12.152;2022-08-11T11:21:52;34.00;30.20
24802;DHT22;12898;50.520;12.152;2022-08-11T11:24:44;34.20;29.90
24802;DHT22;12898;50.520;12.152;2022-08-11T11:27:36;34.10;30.00
24802;DHT22;12898;50.520;12.152;2022-08-11T11:30:11;34.30;29.70
24802;DHT22;12898;50.520;12.152;2022-08-11T11:33:01;34.40;30.20
24802;DHT22;12898;50.520;12.152;2022-08-11T11:38:14;34.80;28.70
24802;DHT22;12898;50.520;12.152;2022-08-11T11:40:41;34.70;28.20
24802;DHT22;12898;50.520;12.152;2022-08-11T11:43:07;34.60;28.90
24802;DHT22;12898;50.520;12.152;2022-08-11T11:45:33;34.70;29.00
24802;DHT22;12898;50.520;12.152;2022-08-11T11:48:00;35.00;28.70
24802;DHT22;12898;50.520;12.152;2022-08-11T11:50:36;35.00;28.70
24802;DHT22;12898;50.520;12.152;2022-08-11T11:53:10;35.10;29.00
24802;DHT22;12898;50.520;12.152;2022-08-11T11:55:37;35.30;28.60
24802;DHT22;12898;50.520;12.152;2022-08-11T11:58:03;35.20;28.70
24802;DHT22;12898;50.520;12.152;2022-08-11T12:00:49;35.30;28.60
24802;DHT22;12898;50.520;12.152;2022-08-11T12:03:34;35.30;28.30
24802;DHT22;12898;50.520;12.152;2022-08-11T12:06:02;35.20;28.20
24802;DHT22;12898;50.520;12.152;2022-08-11T12:08:29;34.90;28.80
24802;DHT22;12898;50.520;12.152;2022-08-11T12:11:04;34.90;28.30
24802;DHT22;12898;50.520;12.152;2022-08-11T12:13:52;35.00;28.80
24802;DHT22;12898;50.520;12.152;2022-08-11T12:16:20;35.00;28.10
24802;DHT22;12898;50.520;12.152;2022-08-11T12:18:48;35.10;28.30
24802;DHT22;12898;50.520;12.152;2022-08-11T12:21:16;35.10;28.50
24802;DHT22;12898;50.520;12.152;2022-08-11T12:23:44;34.80;27.90
24802;DHT22;12898;50.520;12.152;2022-08-11T12:26:30;34.90;28.10
24802;DHT22;12898;50.520;12.152;2022-08-11T12:29:19;35.20;28.40
24802;DHT22;12898;50.520;12.152;2022-08-11T12:31:47;35.20;27.20
24802;DHT22;12898;50.520;12.152;2022-08-11T12:34:19;35.00;27.70
24802;DHT22;12898;50.520;12.152;2022-08-11T12:37:00;35.20;27.50
24802;DHT22;12898;50.520;12.152;2022-08-11T12:39:48;35.30;27.70
24802;DHT22;12898;50.520;12.152;2022-08-11T12:42:35;35.60;27.70
24802;DHT22;12898;50.520;12.152;2022-08-11T12:45:24;35.60;27.30
24802;DHT22;12898;50.520;12.152;2022-08-11T12:48:04;35.60;27.30
24802;DHT22;12898;50.520;12.152;2022-08-11T12:51:11;35.70;27.30
24802;DHT22;12898;50.520;12.152;2022-08-11T12:54:13;35.70;27.50
24802;DHT22;12898;50.520;12.152;2022-08-11T12:56:44;35.90;27.30
24802;DHT22;12898;50.520;12.152;2022-08-11T12:59:30;36.10;27.50
24802;DHT22;12898;50.520;12.152;2022-08-11T13:02:20;36.10;26.40
24802;DHT22;12898;50.520;12.152;2022-08-11T13:05:07;36.10;26.50
24802;DHT22;12898;50.520;12.152;2022-08-11T13:07:37;36.00;27.10
24802;DHT22;12898;50.520;12.152;2022-08-11T13:10:10;35.80;26.60
24802;DHT22;12898;50.520;12.152;2022-08-11T13:12:38;35.50;27.20
24802;DHT22;12898;50.520;12.152;2022-08-11T13:15:21;35.40;27.00
24802;DHT22;12898;50.520;12.152;2022-08-11T13:17:50;35.40;27.80
24802;DHT22;12898;50.520;12.152;2022-08-11T13:20:19;35.30;27.80
24802;DHT22;12898;50.520;12.152;2022-08-11T13:22:51;35.30;27.90
24802;DHT22;12898;50.520;12.152;2022-08-11T13:25:21;35.50;27.30
24802;DHT22;12898;50.520;12.152;2022-08-11T13:27:51;35.60;26.90
24802;DHT22;12898;50.520;12.152;2022-08-11T13:30:23;35.40;26.50
24802;DHT22;12898;50.520;12.152;2022-08-11T13:33:09;35.00;26.70
24802;DHT22;12898;50.520;12.152;2022-08-11T13:35:40;34.70;26.90
24802;DHT22;12898;50.520;12.152;2022-08-11T13:38:07;34.80;27.40
24802;DHT22;12898;50.520;12.152;2022-08-11T13:40:38;34.90;26.60
24802;DHT22;12898;50.520;12.152;2022-08-11T13:43:05;35.00;27.00
24802;DHT22;12898;50.520;12.152;2022-08-11T13:45:32;35.00;26.90
24802;DHT22;12898;50.520;12.152;2022-08-11T13:47:59;35.10;27.10
24802;DHT22;12898;50.520;12.152;2022-08-11T13:50:26;35.30;27.40
24802;DHT22;12898;50.520;12.152;2022-08-11T13:53:11;35.50;27.40
24802;DHT22;12898;50.520;12.152;2022-08-11T13:55:40;35.40;27.40
24802;DHT22;12898;50.520;12.152;2022-08-11T13:58:09;35.50;26.10
24802;DHT22;12898;50.520;12.152;2022-08-11T14:00:37;35.50;26.30
24802;DHT22;12898;50.520;12.152;2022-08-11T14:03:06;35.60;26.70
24802;DHT22;12898;50.520;12.152;2022-08-11T14:05:40;35.60;26.10
24802;DHT22;12898;50.520;12.152;2022-08-11T14:08:10;35.30;26.10
24802;DHT22;12898;50.520;12.152;2022-08-11T14:10:39;35.30;26.70
24802;DHT22;12898;50.520;12.152;2022-08-11T14:13:13;35.30;27.00
24802;DHT22;12898;50.520;12.152;2022-08-11T14:16:08;35.40;26.70
24802;DHT22;12898;50.520;12.152;2022-08-11T14:18:41;35.40;26.50
24802;DHT22;12898;50.520;12.152;2022-08-11T14:21:14;35.10;27.00
24802;DHT22;12898;50.520;12.152;2022-08-11T14:24:00;35.10;27.00
24802;DHT22;12898;50.520;12.152;2022-08-11T14:26:28;35.00;26.30
24802;DHT22;12898;50.520;12.152;2022-08-11T14:29:18;34.90;27.20
24802;DHT22;12898;50.520;12.152;2022-08-11T14:31:46;34.70;27.10
24802;DHT22;12898;50.520;12.152;2022-08-11T14:34:13;34.60;28.20
24802;DHT22;12898;50.520;12.152;2022-08-11T14:36:44;34.70;28.40
24802;DHT22;12898;50.520;12.152;2022-08-11T14:39:16;34.90;27.60
24802;DHT22;12898;50.520;12.152;2022-08-11T14:41:48;34.80;28.20
24802;DHT22;12898;50.520;12.152;2022-08-11T14:44:35;34.70;27.80
24802;DHT22;12898;50.520;12.152;2022-08-11T14:47:21;34.60;28.40
24802;DHT22;12898;50.520;12.152;2022-08-11T14:49:48;34.50;27.80
24802;DHT22;12898;50.520;12.152;2022-08-11T14:52:17;34.40;28.40
24802;DHT22;12898;50.520;12.152;2022-08-11T14:54:47;34.60;28.10
24802;DHT22;12898;50.520;12.152;2022-08-11T14:57:37;34.60;28.40
24802;DHT22;12898;50.520;12.152;2022-08-11T15:00:09;34.60;28.10
24802;DHT22;12898;50.520;12.152;2022-08-11T15:02:40;34.30;28.40
24802;DHT22;12898;50.520;12.152;2022-08-11T15:05:26;34.10;28.60
24802;DHT22;12898;50.520;12.152;2022-08-11T15:07:54;34.00;28.30
24802;DHT22;12898;50.520;12.152;2022-08-11T15:10:23;34.00;28.30
24802;DHT22;12898;50.520;12.152;2022-08-11T15:12:52;34.00;28.00
24802;DHT22;12898;50.520;12.152;2022-08-11T15:15:18;33.90;28.50
24802;DHT22;12898;50.520;12.152;2022-08-11T15:18:05;33.90;28.80
24802;DHT22;12898;50.520;12.152;2022-08-11T15:20:33;33.60;28.50
24802;DHT22;12898;50.520;12.152;2022-08-11T15:23:17;33.40;29.40
24802;DHT22;12898;50.520;12.152;2022-08-11T15:26:09;33.30;29.80
24802;DHT22;12898;50.520;12.152;2022-08-11T15:28:41;33.40;29.20
24802;DHT22;12898;50.520;12.152;2022-08-11T15:31:28;33.50;29.40
24802;DHT22;12898;50.520;12.152;2022-08-11T15:34:16;33.60;29.30
24802;DHT22;12898;50.520;12.152;2022-08-11T15:37:07;33.60;29.10
24802;DHT22;12898;50.520;12.152;2022-08-11T15:42:59;33.50;29.10
24802;DHT22;12898;50.520;12.152;2022-08-11T15:45:49;33.30;29.00
24802;DHT22;12898;50.520;12.152;2022-08-11T15:48:36;33.20;28.90
24802;DHT22;12898;50.520;12.152;2022-08-11T15:51:35;32.90;29.00
24802;DHT22;12898;50.520;12.152;2022-08-11T15:54:15;32.80;29.20
24802;DHT22;12898;50.520;12.152;2022-08-11T15:56:45;32.80;29.20
24802;DHT22;12898;50.520;12.152;2022-08-11T15:59:15;32.80;29.10
24802;DHT22;12898;50.520;12.152;2022-08-11T16:02:02;32.80;29.00
24802;DHT22;12898;50.520;12.152;2022-08-11T16:04:48;32.90;28.50
24802;DHT22;12898;50.520;12.152;2022-08-11T16:07:16;33.10;28.90
24802;DHT22;12898;50.520;12.152;2022-08-11T16:09:52;33.40;28.30
24802;DHT22;12898;50.520;12.152;2022-08-11T16:12:27;33.70;28.10
24802;DHT22;12898;50.520;12.152;2022-08-11T16:14:57;34.10;27.40
24802;DHT22;12898;50.520;12.152;2022-08-11T16:17:44;34.20;27.50
24802;DHT22;12898;50.520;12.152;2022-08-11T16:20:14;34.20;27.00
24802;DHT22;12898;50.520;12.152;2022-08-11T16:22:41;34.40;27.20
24802;DHT22;12898;50.520;12.152;2022-08-11T16:25:22;34.80;27.00
24802;DHT22;12898;50.520;12.152;2022-08-11T16:27:52;34.90;26.60
24802;DHT22;12898;50.520;12.152;2022-08-11T16:30:22;34.90;26.60
24802;DHT22;12898;50.520;12.152;2022-08-11T16:32:49;34.80;26.90
24802;DHT22;12898;50.520;12.152;2022-08-11T16:35:32;34.70;26.90
24802;DHT22;12898;50.520;12.152;2022-08-11T16:38:24;34.50;26.60
24802;DHT22;12898;50.520;12.152;2022-08-11T16:41:08;34.40;27.50
24802;DHT22;12898;50.520;12.152;2022-08-11T16:43:47;34.20;27.00
24802;DHT22;12898;50.520;12.152;2022-08-11T16:46:33;34.00;27.40
24802;DHT22;12898;50.520;12.152;2022-08-11T16:49:29;34.00;27.20
24802;DHT22;12898;50.520;12.152;2022-08-11T16:52:00;34.20;27.20
24802;DHT22;12898;50.520;12.152;2022-08-11T16:54:38;34.80;26.50
24802;DHT22;12898;50.520;12.152;2022-08-11T16:57:12;35.70;25.50
24802;DHT22;12898;50.520;12.152;2022-08-11T17:00:03;36.10;24.90
24802;DHT22;12898;50.520;12.152;2022-08-11T17:02:35;35.60;25.40
24802;DHT22;12898;50.520;12.152;2022-08-11T17:05:22;33.90;26.30
24802;DHT22;12898;50.520;12.152;2022-08-11T17:08:09;31.90;28.10
24802;DHT22;12898;50.520;12.152;2022-08-11T17:11:01;30.40;29.90
24802;DHT22;12898;50.520;12.152;2022-08-11T17:13:51;29.20;31.30
24802;DHT22;12898;50.520;12.152;2022-08-11T17:16:28;28.30;33.30
24802;DHT22;12898;50.520;12.152;2022-08-11T17:19:11;27.70;34.10
24802;DHT22;12898;50.520;12.152;2022-08-11T17:21:41;27.20;36.00
24802;DHT22;12898;50.520;12.152;2022-08-11T17:24:32;26.80;35.70
24802;DHT22;12898;50.520;12.152;2022-08-11T17:26:59;26.50;36.10
24802;DHT22;12898;50.520;12.152;2022-08-11T17:29:31;26.10;35.50
24802;DHT22;12898;50.520;12.152;2022-08-11T17:32:29;25.90;36.30
24802;DHT22;12898;50.520;12.152;2022-08-11T17:35:24;25.70;36.80
24802;DHT22;12898;50.520;12.152;2022-08-11T17:40:38;25.30;37.90
24802;DHT22;12898;50.520;12.152;2022-08-11T17:43:28;25.20;37.70
24802;DHT22;12898;50.520;12.152;2022-08-11T17:46:16;24.90;37.60
24802;DHT22;12898;50.520;12.152;2022-08-11T17:49:03;24.70;37.50
24802;DHT22;12898;50.520;12.152;2022-08-11T17:51:32;24.60;37.90
24802;DHT22;12898;50.520;12.152;2022-08-11T17:54:18;24.40;38.00
24802;DHT22;12898;50.520;12.152;2022-08-11T17:57:05;24.20;38.70
24802;DHT22;12898;50.520;12.152;2022-08-11T17:59:54;24.10;38.20
24802;DHT22;12898;50.520;12.152;2022-08-11T18:02:27;23.90;38.90
24802;DHT22;12898;50.520;12.152;2022-08-11T18:05:25;23.70;38.80
24802;DHT22;12898;50.520;12.152;2022-08-11T18:07:58;23.50;39.20
24802;DHT22;12898;50.520;12.152;2022-08-11T18:10:44;23.40;39.70
24802;DHT22;12898;50.520;12.152;2022-08-11T18:13:30;23.10;39.90
24802;DHT22;12898;50.520;12.152;2022-08-11T18:16:17;22.90;40.20
24802;DHT22;12898;50.520;12.152;2022-08-11T18:19:04;22.70;40.80
24802;DHT22;12898;50.520;12.152;2022-08-11T18:21:50;22.50;41.20
24802;DHT22;12898;50.520;12.152;2022-08-11T18:24:38;22.30;41.30
24802;DHT22;12898;50.520;12.152;2022-08-11T18:27:29;22.10;42.10
24802;DHT22;12898;50.520;12.152;2022-08-11T18:30:15;21.90;42.30
24802;DHT22;12898;50.520;12.152;2022-08-11T18:33:00;21.80;42.20
24802;DHT22;12898;50.520;12.152;2022-08-11T18:35:50;21.70;42.30
24802;DHT22;12898;50.520;12.152;2022-08-11T18:38:38;21.50;42.40
24802;DHT22;12898;50.520;12.152;2022-08-11T18:41:25;21.40;42.30
24802;DHT22;12898;50.520;12.152;2022-08-11T18:44:15;21.20;42.50
24802;DHT22;12898;50.520;12.152;2022-08-11T18:47:09;21.10;42.50
24802;DHT22;12898;50.520;12.152;2022-08-11T18:50:01;21.00;42.60
24802;DHT22;12898;50.520;12.152;2022-08-11T18:52:51;20.80;43.40
24802;DHT22;12898;50.520;12.152;2022-08-11T18:55:36;20.70;44.00
24802;DHT22;12898;50.520;12.152;2022-08-11T18:58:29;20.60;43.40
24802;DHT22;12898;50.520;12.152;2022-08-11T19:01:15;20.40;43.70